Orondo, WA (98843)

2:48 AM PDT on October 23, 2014 (GMT -0700)
APRSWXNET Chelan Area | Change Station
CLOSE
Current Station
Personal Weather Station
Location: Chelan, WA
Elevation: 1169 ft
Nearby Weather Stations

Elev 1169 ft 47.84 °N, 120.01 °W | Updated 4 seconds ago

Mostly Cloudy
Mostly Cloudy
53.4 °F
Feels Like 53.4 °F
N
0.0
Wind Variable Wind from SW
Gusts 0.0 mph

Today
High -- | Low -- °F
--% Chance of Precip.
Yesterday
High -- | Low -- °F
Precip. -- in
7:31 AM 5:56 PM
Waning Crescent, 0% visible
Pressure 29.71 in
Visibility 10.0 miles
Clouds Clear
Dew Point 37 °F
Humidity 53%
Rainfall 0.00 in
Snow Depth Not available.
UV 0 out of 12
Pollen .40 out of 12
Air Quality Not available.
Flu Activity Sporadic
METAR KEAT 230855Z AUTO 17004KT 10SM CLR 09/07 A2970 RMK AO2 SLP059 60000 T00890067 50017

More Conditions Fewer Conditions

Pressure 29.71 in
Visibility 10.0 miles
Clouds Clear
Dew Point 37 °F
Humidity 53%
Rainfall 0.00 in
Snow Depth Not available.
UV 0 out of 12
Pollen .40 out of 12
Air Quality Not available.
Flu Activity Sporadic
METAR KEAT 230855Z AUTO 17004KT 10SM CLR 09/07 A2970 RMK AO2 SLP059 60000 T00890067 50017

More Conditions Fewer Conditions

10-Day Weather Forecast

Almanac

Astronomy

Oct. 23, 2014 Rise Set
Actual Time 7:31 AM PDT 5:56 PM PDT
Civil Twilight 6:59 AM PDT 6:28 PM PDT
Nautical Twilight 6:23 AM PDT 7:04 PM PDT
Astronomical Twilight 5:47 AM PDT 7:40 PM PDT
Moon 7:14 AM PDT 6:01 PM PDT
Length of Visible Light 11h 29m
Length of Day
10h 25m
Tomorrow will be 3m 16s shorter.
Waning Crescent, 0% of the Moon is Illuminated
Today
Waning Crescent
Oct 23
New
Oct 30
First Quarter
Nov 6
Full
Nov 14
Last Quarter

Today's Extremes

State Highs State Lows

Community

WunderPhotos

Upload Photos

1,764,199 photos uploaded!

Nearby

Snow Depth

Station Depth Elevation
Pope Ridge 0 in 3540 ft
Trough 0 in 5300 ft
Grouse Camp 0 in 5380 ft
Blewett Pass 0 in 4270 ft
Stevens Pass 0 in 4070 ft

Earthquake Activity

City Distance Mag. Time & Date
No recent earthquake activity has been reported nearby.
Minimum magnitude displayed is 2.5.

Coastal Water Temperatures

Place Temperature
No Stations Reporting

Nearby Weather Stations